sensor_id;sensor_type;location;lat;lon;timestamp;P1;durP1;ratioP1;P2;durP2;ratioP2
12625;SDS011;6378;42.684;23.372;2023-01-19T00:02:17;21.45;;;5.00;;
12625;SDS011;6378;42.684;23.372;2023-01-19T00:04:42;21.00;;;4.78;;
12625;SDS011;6378;42.684;23.372;2023-01-19T00:07:07;25.02;;;5.38;;
12625;SDS011;6378;42.684;23.372;2023-01-19T00:09:33;21.13;;;5.40;;
12625;SDS011;6378;42.684;23.372;2023-01-19T00:12:02;20.60;;;4.57;;
12625;SDS011;6378;42.684;23.372;2023-01-19T00:14:28;28.40;;;5.32;;
12625;SDS011;6378;42.684;23.372;2023-01-19T00:16:54;20.98;;;5.63;;
12625;SDS011;6378;42.684;23.372;2023-01-19T00:19:19;25.67;;;5.13;;
12625;SDS011;6378;42.684;23.372;2023-01-19T00:21:45;17.05;;;4.22;;
12625;SDS011;6378;42.684;23.372;2023-01-19T00:24:10;19.98;;;5.65;;
12625;SDS011;6378;42.684;23.372;2023-01-19T00:26:37;20.55;;;5.30;;
12625;SDS011;6378;42.684;23.372;2023-01-19T00:29:04;18.50;;;5.55;;
12625;SDS011;6378;42.684;23.372;2023-01-19T00:31:31;22.20;;;5.60;;
12625;SDS011;6378;42.684;23.372;2023-01-19T00:33:58;35.25;;;6.35;;
12625;SDS011;6378;42.684;23.372;2023-01-19T00:36:23;26.80;;;5.78;;
12625;SDS011;6378;42.684;23.372;2023-01-19T00:38:49;20.65;;;5.07;;
12625;SDS011;6378;42.684;23.372;2023-01-19T00:41:15;19.88;;;5.28;;
12625;SDS011;6378;42.684;23.372;2023-01-19T00:43:41;23.02;;;5.22;;
12625;SDS011;6378;42.684;23.372;2023-01-19T00:46:06;22.95;;;4.88;;
12625;SDS011;6378;42.684;23.372;2023-01-19T00:48:31;21.73;;;5.35;;
12625;SDS011;6378;42.684;23.372;2023-01-19T00:50:57;21.08;;;7.50;;
12625;SDS011;6378;42.684;23.372;2023-01-19T00:53:23;20.75;;;3.85;;
12625;SDS011;6378;42.684;23.372;2023-01-19T00:55:49;17.25;;;4.03;;
12625;SDS011;6378;42.684;23.372;2023-01-19T00:58:15;21.48;;;4.03;;
12625;SDS011;6378;42.684;23.372;2023-01-19T01:00:40;22.67;;;4.50;;
12625;SDS011;6378;42.684;23.372;2023-01-19T01:03:05;18.80;;;3.50;;
12625;SDS011;6378;42.684;23.372;2023-01-19T01:05:31;19.50;;;4.38;;
12625;SDS011;6378;42.684;23.372;2023-01-19T01:07:57;23.60;;;4.50;;
12625;SDS011;6378;42.684;23.372;2023-01-19T01:10:23;23.52;;;4.70;;
12625;SDS011;6378;42.684;23.372;2023-01-19T01:12:50;22.60;;;4.15;;
12625;SDS011;6378;42.684;23.372;2023-01-19T01:15:16;18.27;;;4.50;;
12625;SDS011;6378;42.684;23.372;2023-01-19T01:17:42;22.88;;;4.88;;
12625;SDS011;6378;42.684;23.372;2023-01-19T01:20:17;19.35;;;3.72;;
12625;SDS011;6378;42.684;23.372;2023-01-19T01:22:45;15.10;;;3.58;;
12625;SDS011;6378;42.684;23.372;2023-01-19T01:25:13;21.65;;;3.97;;
12625;SDS011;6378;42.684;23.372;2023-01-19T01:27:40;16.40;;;4.05;;
12625;SDS011;6378;42.684;23.372;2023-01-19T01:30:07;20.63;;;4.38;;
12625;SDS011;6378;42.684;23.372;2023-01-19T01:32:33;17.33;;;3.85;;
12625;SDS011;6378;42.684;23.372;2023-01-19T01:34:59;20.35;;;4.50;;
12625;SDS011;6378;42.684;23.372;2023-01-19T01:37:24;18.08;;;4.68;;
12625;SDS011;6378;42.684;23.372;2023-01-19T01:39:49;21.48;;;3.80;;
12625;SDS011;6378;42.684;23.372;2023-01-19T01:42:16;17.15;;;5.13;;
12625;SDS011;6378;42.684;23.372;2023-01-19T01:44:50;23.75;;;3.95;;
12625;SDS011;6378;42.684;23.372;2023-01-19T01:50:04;17.98;;;4.25;;
12625;SDS011;6378;42.684;23.372;2023-01-19T01:52:31;19.95;;;3.63;;
12625;SDS011;6378;42.684;23.372;2023-01-19T01:55:00;22.55;;;3.85;;
12625;SDS011;6378;42.684;23.372;2023-01-19T01:57:27;22.92;;;3.80;;
12625;SDS011;6378;42.684;23.372;2023-01-19T01:59:54;14.23;;;3.38;;
12625;SDS011;6378;42.684;23.372;2023-01-19T02:02:24;20.83;;;3.72;;
12625;SDS011;6378;42.684;23.372;2023-01-19T02:05:14;18.08;;;3.78;;
12625;SDS011;6378;42.684;23.372;2023-01-19T02:07:42;18.15;;;3.28;;
12625;SDS011;6378;42.684;23.372;2023-01-19T02:10:31;13.32;;;3.47;;
12625;SDS011;6378;42.684;23.372;2023-01-19T02:13:17;15.43;;;3.95;;
12625;SDS011;6378;42.684;23.372;2023-01-19T02:15:46;15.38;;;3.65;;
12625;SDS011;6378;42.684;23.372;2023-01-19T02:18:16;17.50;;;3.63;;
12625;SDS011;6378;42.684;23.372;2023-01-19T02:20:45;18.40;;;3.20;;
12625;SDS011;6378;42.684;23.372;2023-01-19T02:23:19;19.33;;;3.47;;
12625;SDS011;6378;42.684;23.372;2023-01-19T02:26:22;15.98;;;5.00;;
12625;SDS011;6378;42.684;23.372;2023-01-19T02:28:52;20.27;;;3.58;;
12625;SDS011;6378;42.684;23.372;2023-01-19T02:31:23;14.20;;;3.70;;
12625;SDS011;6378;42.684;23.372;2023-01-19T02:33:50;13.43;;;2.75;;
12625;SDS011;6378;42.684;23.372;2023-01-19T02:36:16;13.63;;;3.13;;
12625;SDS011;6378;42.684;23.372;2023-01-19T02:38:47;15.90;;;3.35;;
12625;SDS011;6378;42.684;23.372;2023-01-19T02:41:16;16.88;;;3.20;;
12625;SDS011;6378;42.684;23.372;2023-01-19T02:43:46;19.80;;;2.80;;
12625;SDS011;6378;42.684;23.372;2023-01-19T02:46:13;14.82;;;4.35;;
12625;SDS011;6378;42.684;23.372;2023-01-19T02:48:39;17.55;;;3.80;;
12625;SDS011;6378;42.684;23.372;2023-01-19T02:51:22;13.98;;;3.15;;
12625;SDS011;6378;42.684;23.372;2023-01-19T03:07:41;10.40;;;3.58;;
12625;SDS011;6378;42.684;23.372;2023-01-19T03:10:27;15.38;;;3.33;;
12625;SDS011;6378;42.684;23.372;2023-01-19T03:13:07;19.42;;;3.38;;
12625;SDS011;6378;42.684;23.372;2023-01-19T03:18:07;13.75;;;3.17;;
12625;SDS011;6378;42.684;23.372;2023-01-19T03:20:34;15.75;;;3.15;;
12625;SDS011;6378;42.684;23.372;2023-01-19T03:23:04;15.43;;;3.38;;
12625;SDS011;6378;42.684;23.372;2023-01-19T03:25:34;20.67;;;3.63;;
12625;SDS011;6378;42.684;23.372;2023-01-19T03:28:03;16.15;;;3.17;;
12625;SDS011;6378;42.684;23.372;2023-01-19T03:30:34;18.13;;;3.35;;
12625;SDS011;6378;42.684;23.372;2023-01-19T03:35:58;20.20;;;3.92;;
12625;SDS011;6378;42.684;23.372;2023-01-19T03:38:30;25.08;;;3.97;;
12625;SDS011;6378;42.684;23.372;2023-01-19T03:41:01;20.17;;;4.15;;
12625;SDS011;6378;42.684;23.372;2023-01-19T03:43:29;15.77;;;3.33;;
12625;SDS011;6378;42.684;23.372;2023-01-19T03:45:55;18.35;;;4.38;;
12625;SDS011;6378;42.684;23.372;2023-01-19T03:48:21;19.58;;;3.95;;
12625;SDS011;6378;42.684;23.372;2023-01-19T03:50:47;22.83;;;4.22;;
12625;SDS011;6378;42.684;23.372;2023-01-19T03:53:14;27.25;;;5.03;;
12625;SDS011;6378;42.684;23.372;2023-01-19T03:55:42;24.42;;;4.38;;
12625;SDS011;6378;42.684;23.372;2023-01-19T03:58:11;18.08;;;3.95;;
12625;SDS011;6378;42.684;23.372;2023-01-19T04:00:36;18.35;;;3.95;;
12625;SDS011;6378;42.684;23.372;2023-01-19T04:03:02;20.65;;;3.35;;
12625;SDS011;6378;42.684;23.372;2023-01-19T04:05:29;22.48;;;4.20;;
12625;SDS011;6378;42.684;23.372;2023-01-19T04:07:55;22.25;;;5.05;;
12625;SDS011;6378;42.684;23.372;2023-01-19T04:10:20;22.27;;;4.78;;
12625;SDS011;6378;42.684;23.372;2023-01-19T04:12:46;30.58;;;4.50;;
12625;SDS011;6378;42.684;23.372;2023-01-19T04:15:12;19.00;;;4.57;;
12625;SDS011;6378;42.684;23.372;2023-01-19T04:17:38;20.83;;;4.68;;
12625;SDS011;6378;42.684;23.372;2023-01-19T04:20:04;24.20;;;5.18;;
12625;SDS011;6378;42.684;23.372;2023-01-19T04:22:30;20.42;;;5.28;;
12625;SDS011;6378;42.684;23.372;2023-01-19T04:24:56;27.67;;;5.88;;
12625;SDS011;6378;42.684;23.372;2023-01-19T04:27:21;23.92;;;4.70;;
12625;SDS011;6378;42.684;23.372;2023-01-19T04:29:47;19.30;;;4.40;;
12625;SDS011;6378;42.684;23.372;2023-01-19T04:32:12;32.80;;;5.85;;
12625;SDS011;6378;42.684;23.372;2023-01-19T04:34:38;23.73;;;5.15;;
12625;SDS011;6378;42.684;23.372;2023-01-19T04:37:04;24.35;;;5.45;;
12625;SDS011;6378;42.684;23.372;2023-01-19T04:39:29;24.88;;;5.38;;
12625;SDS011;6378;42.684;23.372;2023-01-19T04:41:54;26.00;;;5.63;;
12625;SDS011;6378;42.684;23.372;2023-01-19T04:44:21;28.83;;;5.68;;
12625;SDS011;6378;42.684;23.372;2023-01-19T04:46:47;26.80;;;4.82;;
12625;SDS011;6378;42.684;23.372;2023-01-19T04:49:13;26.50;;;5.78;;
12625;SDS011;6378;42.684;23.372;2023-01-19T04:51:39;31.70;;;5.55;;
12625;SDS011;6378;42.684;23.372;2023-01-19T04:54:04;28.10;;;5.50;;
12625;SDS011;6378;42.684;23.372;2023-01-19T04:56:30;31.63;;;5.97;;
12625;SDS011;6378;42.684;23.372;2023-01-19T04:58:56;31.42;;;6.70;;
12625;SDS011;6378;42.684;23.372;2023-01-19T05:01:21;34.63;;;6.30;;
12625;SDS011;6378;42.684;23.372;2023-01-19T05:03:47;34.00;;;5.70;;
12625;SDS011;6378;42.684;23.372;2023-01-19T05:06:12;32.88;;;5.60;;
12625;SDS011;6378;42.684;23.372;2023-01-19T05:08:37;31.38;;;6.38;;
12625;SDS011;6378;42.684;23.372;2023-01-19T05:11:03;33.08;;;6.55;;
12625;SDS011;6378;42.684;23.372;2023-01-19T05:13:29;28.45;;;4.97;;
12625;SDS011;6378;42.684;23.372;2023-01-19T05:15:54;27.42;;;5.22;;
12625;SDS011;6378;42.684;23.372;2023-01-19T05:18:19;31.17;;;6.47;;
12625;SDS011;6378;42.684;23.372;2023-01-19T05:20:45;23.95;;;5.30;;
12625;SDS011;6378;42.684;23.372;2023-01-19T05:23:10;24.90;;;5.88;;
12625;SDS011;6378;42.684;23.372;2023-01-19T05:25:36;26.52;;;5.13;;
12625;SDS011;6378;42.684;23.372;2023-01-19T05:28:01;23.27;;;5.25;;
12625;SDS011;6378;42.684;23.372;2023-01-19T05:30:27;30.92;;;6.03;;
12625;SDS011;6378;42.684;23.372;2023-01-19T05:32:53;24.50;;;5.53;;
12625;SDS011;6378;42.684;23.372;2023-01-19T05:35:18;33.60;;;5.85;;
12625;SDS011;6378;42.684;23.372;2023-01-19T05:37:43;27.75;;;5.47;;
12625;SDS011;6378;42.684;23.372;2023-01-19T05:40:09;26.58;;;5.93;;
12625;SDS011;6378;42.684;23.372;2023-01-19T05:42:35;24.25;;;5.22;;
12625;SDS011;6378;42.684;23.372;2023-01-19T05:45:00;22.05;;;4.78;;
12625;SDS011;6378;42.684;23.372;2023-01-19T05:47:27;23.30;;;4.55;;
12625;SDS011;6378;42.684;23.372;2023-01-19T05:49:54;25.10;;;4.57;;
12625;SDS011;6378;42.684;23.372;2023-01-19T05:52:19;24.80;;;6.25;;
12625;SDS011;6378;42.684;23.372;2023-01-19T05:54:45;20.60;;;5.65;;
12625;SDS011;6378;42.684;23.372;2023-01-19T05:57:12;27.60;;;6.95;;
12625;SDS011;6378;42.684;23.372;2023-01-19T05:59:38;20.13;;;4.78;;
12625;SDS011;6378;42.684;23.372;2023-01-19T06:02:04;19.77;;;4.78;;
12625;SDS011;6378;42.684;23.372;2023-01-19T06:04:30;29.85;;;6.82;;
12625;SDS011;6378;42.684;23.372;2023-01-19T06:06:56;32.42;;;6.38;;
12625;SDS011;6378;42.684;23.372;2023-01-19T06:09:21;31.40;;;5.80;;
12625;SDS011;6378;42.684;23.372;2023-01-19T06:11:46;24.13;;;5.28;;
12625;SDS011;6378;42.684;23.372;2023-01-19T06:14:12;22.15;;;5.43;;
12625;SDS011;6378;42.684;23.372;2023-01-19T06:16:38;28.73;;;6.07;;
12625;SDS011;6378;42.684;23.372;2023-01-19T06:19:03;29.95;;;6.10;;
12625;SDS011;6378;42.684;23.372;2023-01-19T06:21:29;18.33;;;5.10;;
12625;SDS011;6378;42.684;23.372;2023-01-19T06:23:54;35.15;;;5.65;;
12625;SDS011;6378;42.684;23.372;2023-01-19T06:26:20;32.88;;;6.38;;
12625;SDS011;6378;42.684;23.372;2023-01-19T06:28:45;23.48;;;5.57;;
12625;SDS011;6378;42.684;23.372;2023-01-19T06:31:12;24.05;;;5.78;;
12625;SDS011;6378;42.684;23.372;2023-01-19T06:33:38;25.23;;;5.32;;
12625;SDS011;6378;42.684;23.372;2023-01-19T06:36:03;23.90;;;5.70;;
12625;SDS011;6378;42.684;23.372;2023-01-19T06:38:29;28.70;;;5.15;;
12625;SDS011;6378;42.684;23.372;2023-01-19T06:40:56;33.13;;;6.47;;
12625;SDS011;6378;42.684;23.372;2023-01-19T06:43:27;26.15;;;6.40;;
12625;SDS011;6378;42.684;23.372;2023-01-19T06:45:53;32.58;;;7.40;;
12625;SDS011;6378;42.684;23.372;2023-01-19T06:48:20;32.70;;;5.75;;
12625;SDS011;6378;42.684;23.372;2023-01-19T06:50:46;32.90;;;6.43;;
12625;SDS011;6378;42.684;23.372;2023-01-19T06:53:13;32.22;;;6.90;;
12625;SDS011;6378;42.684;23.372;2023-01-19T06:55:40;20.58;;;4.88;;
12625;SDS011;6378;42.684;23.372;2023-01-19T06:58:09;29.48;;;6.53;;
12625;SDS011;6378;42.684;23.372;2023-01-19T07:00:35;24.88;;;5.50;;
12625;SDS011;6378;42.684;23.372;2023-01-19T07:03:00;29.25;;;6.85;;
12625;SDS011;6378;42.684;23.372;2023-01-19T07:05:26;27.60;;;5.10;;
12625;SDS011;6378;42.684;23.372;2023-01-19T07:07:55;22.20;;;5.75;;
12625;SDS011;6378;42.684;23.372;2023-01-19T07:10:21;27.83;;;6.80;;
12625;SDS011;6378;42.684;23.372;2023-01-19T07:12:48;19.15;;;5.68;;
12625;SDS011;6378;42.684;23.372;2023-01-19T07:15:15;28.75;;;6.75;;
12625;SDS011;6378;42.684;23.372;2023-01-19T07:17:41;25.65;;;6.07;;
12625;SDS011;6378;42.684;23.372;2023-01-19T07:20:11;23.85;;;6.18;;
12625;SDS011;6378;42.684;23.372;2023-01-19T07:22:38;27.35;;;6.90;;
12625;SDS011;6378;42.684;23.372;2023-01-19T07:25:10;31.38;;;6.05;;
12625;SDS011;6378;42.684;23.372;2023-01-19T07:27:37;33.83;;;6.82;;
12625;SDS011;6378;42.684;23.372;2023-01-19T07:30:02;28.20;;;6.25;;
12625;SDS011;6378;42.684;23.372;2023-01-19T07:32:28;28.08;;;6.63;;
12625;SDS011;6378;42.684;23.372;2023-01-19T07:34:54;22.63;;;6.38;;
12625;SDS011;6378;42.684;23.372;2023-01-19T07:37:20;33.75;;;7.00;;
12625;SDS011;6378;42.684;23.372;2023-01-19T07:39:45;26.73;;;6.28;;
12625;SDS011;6378;42.684;23.372;2023-01-19T07:42:11;28.55;;;6.63;;
12625;SDS011;6378;42.684;23.372;2023-01-19T07:44:36;56.70;;;7.65;;
12625;SDS011;6378;42.684;23.372;2023-01-19T07:47:02;24.15;;;7.38;;
12625;SDS011;6378;42.684;23.372;2023-01-19T07:49:31;23.10;;;6.07;;
12625;SDS011;6378;42.684;23.372;2023-01-19T07:51:56;24.40;;;5.47;;
12625;SDS011;6378;42.684;23.372;2023-01-19T07:54:22;32.85;;;6.03;;
12625;SDS011;6378;42.684;23.372;2023-01-19T07:56:47;28.83;;;6.22;;
12625;SDS011;6378;42.684;23.372;2023-01-19T07:59:13;32.45;;;7.22;;
12625;SDS011;6378;42.684;23.372;2023-01-19T08:01:38;30.02;;;5.18;;
12625;SDS011;6378;42.684;23.372;2023-01-19T08:04:04;19.02;;;6.20;;
12625;SDS011;6378;42.684;23.372;2023-01-19T08:06:33;24.63;;;5.35;;
12625;SDS011;6378;42.684;23.372;2023-01-19T08:09:00;37.15;;;6.80;;
12625;SDS011;6378;42.684;23.372;2023-01-19T08:11:26;34.08;;;5.85;;
12625;SDS011;6378;42.684;23.372;2023-01-19T08:13:51;37.95;;;7.15;;
12625;SDS011;6378;42.684;23.372;2023-01-19T08:16:17;33.47;;;7.15;;
12625;SDS011;6378;42.684;23.372;2023-01-19T08:18:42;36.25;;;8.00;;
12625;SDS011;6378;42.684;23.372;2023-01-19T08:21:08;36.95;;;7.78;;
12625;SDS011;6378;42.684;23.372;2023-01-19T08:23:33;23.98;;;5.93;;
12625;SDS011;6378;42.684;23.372;2023-01-19T08:25:59;29.65;;;7.53;;
12625;SDS011;6378;42.684;23.372;2023-01-19T08:28:24;31.17;;;6.68;;
12625;SDS011;6378;42.684;23.372;2023-01-19T08:30:50;39.08;;;7.20;;
12625;SDS011;6378;42.684;23.372;2023-01-19T08:33:19;31.42;;;6.82;;
12625;SDS011;6378;42.684;23.372;2023-01-19T08:35:47;25.10;;;7.28;;
12625;SDS011;6378;42.684;23.372;2023-01-19T08:38:14;31.55;;;7.25;;
12625;SDS011;6378;42.684;23.372;2023-01-19T08:40:41;28.77;;;6.85;;
12625;SDS011;6378;42.684;23.372;2023-01-19T08:43:08;60.45;;;8.10;;
12625;SDS011;6378;42.684;23.372;2023-01-19T08:45:38;22.63;;;6.22;;
12625;SDS011;6378;42.684;23.372;2023-01-19T08:48:05;34.35;;;6.32;;
12625;SDS011;6378;42.684;23.372;2023-01-19T08:50:31;32.65;;;6.70;;
12625;SDS011;6378;42.684;23.372;2023-01-19T08:52:58;27.52;;;6.30;;
12625;SDS011;6378;42.684;23.372;2023-01-19T08:55:25;26.33;;;7.07;;
12625;SDS011;6378;42.684;23.372;2023-01-19T08:57:54;35.60;;;6.53;;
12625;SDS011;6378;42.684;23.372;2023-01-19T09:00:24;26.60;;;6.38;;
12625;SDS011;6378;42.684;23.372;2023-01-19T09:02:50;29.02;;;6.30;;
12625;SDS011;6378;42.684;23.372;2023-01-19T09:05:16;27.13;;;5.93;;
12625;SDS011;6378;42.684;23.372;2023-01-19T09:07:43;39.38;;;6.80;;
12625;SDS011;6378;42.684;23.372;2023-01-19T09:10:10;42.22;;;7.07;;
12625;SDS011;6378;42.684;23.372;2023-01-19T09:12:36;33.55;;;5.65;;
12625;SDS011;6378;42.684;23.372;2023-01-19T09:15:01;27.60;;;5.60;;
12625;SDS011;6378;42.684;23.372;2023-01-19T09:17:27;24.60;;;6.10;;
12625;SDS011;6378;42.684;23.372;2023-01-19T09:19:52;27.88;;;5.90;;
12625;SDS011;6378;42.684;23.372;2023-01-19T09:22:18;26.58;;;5.40;;
12625;SDS011;6378;42.684;23.372;2023-01-19T09:24:43;29.48;;;6.88;;
12625;SDS011;6378;42.684;23.372;2023-01-19T09:27:08;23.70;;;5.40;;
12625;SDS011;6378;42.684;23.372;2023-01-19T09:29:34;25.30;;;5.63;;
12625;SDS011;6378;42.684;23.372;2023-01-19T09:32:00;25.02;;;5.00;;
12625;SDS011;6378;42.684;23.372;2023-01-19T09:34:26;25.08;;;5.40;;
12625;SDS011;6378;42.684;23.372;2023-01-19T09:36:51;25.17;;;5.63;;
12625;SDS011;6378;42.684;23.372;2023-01-19T09:39:17;23.95;;;5.32;;
12625;SDS011;6378;42.684;23.372;2023-01-19T09:41:44;28.40;;;5.57;;
12625;SDS011;6378;42.684;23.372;2023-01-19T09:44:26;28.52;;;5.10;;
12625;SDS011;6378;42.684;23.372;2023-01-19T09:46:53;23.15;;;5.43;;
12625;SDS011;6378;42.684;23.372;2023-01-19T09:49:20;15.75;;;4.70;;
12625;SDS011;6378;42.684;23.372;2023-01-19T09:51:55;22.90;;;4.40;;
12625;SDS011;6378;42.684;23.372;2023-01-19T09:54:31;19.23;;;4.63;;
12625;SDS011;6378;42.684;23.372;2023-01-19T09:57:08;20.23;;;5.55;;
12625;SDS011;6378;42.684;23.372;2023-01-19T09:59:35;25.77;;;5.53;;
12625;SDS011;6378;42.684;23.372;2023-01-19T10:02:22;23.35;;;5.78;;
12625;SDS011;6378;42.684;23.372;2023-01-19T10:10:41;18.88;;;4.85;;
12625;SDS011;6378;42.684;23.372;2023-01-19T10:18:56;18.13;;;5.20;;
12625;SDS011;6378;42.684;23.372;2023-01-19T10:21:27;12.23;;;3.95;;
12625;SDS011;6378;42.684;23.372;2023-01-19T10:24:04;15.02;;;3.97;;
12625;SDS011;6378;42.684;23.372;2023-01-19T10:26:41;13.85;;;4.00;;
12625;SDS011;6378;42.684;23.372;2023-01-19T10:29:34;12.10;;;3.45;;
12625;SDS011;6378;42.684;23.372;2023-01-19T10:32:12;11.65;;;4.03;;
12625;SDS011;6378;42.684;23.372;2023-01-19T10:34:44;20.23;;;4.35;;
12625;SDS011;6378;42.684;23.372;2023-01-19T10:39:41;21.70;;;4.65;;
12625;SDS011;6378;42.684;23.372;2023-01-19T10:42:09;15.18;;;4.20;;
12625;SDS011;6378;42.684;23.372;2023-01-19T10:44:39;19.45;;;4.00;;
12625;SDS011;6378;42.684;23.372;2023-01-19T10:47:05;14.77;;;3.47;;
12625;SDS011;6378;42.684;23.372;2023-01-19T10:49:41;13.48;;;4.10;;
12625;SDS011;6378;42.684;23.372;2023-01-19T10:55:04;16.58;;;4.05;;
12625;SDS011;6378;42.684;23.372;2023-01-19T10:57:33;11.52;;;3.65;;
12625;SDS011;6378;42.684;23.372;2023-01-19T11:00:04;16.02;;;4.28;;
12625;SDS011;6378;42.684;23.372;2023-01-19T11:02:31;15.82;;;3.60;;
12625;SDS011;6378;42.684;23.372;2023-01-19T11:05:01;14.63;;;4.22;;
12625;SDS011;6378;42.684;23.372;2023-01-19T11:07:49;15.15;;;3.78;;
12625;SDS011;6378;42.684;23.372;2023-01-19T11:12:42;11.77;;;3.97;;
12625;SDS011;6378;42.684;23.372;2023-01-19T11:18:06;18.52;;;3.53;;
12625;SDS011;6378;42.684;23.372;2023-01-19T11:20:38;17.00;;;3.08;;
12625;SDS011;6378;42.684;23.372;2023-01-19T11:25:47;17.35;;;4.40;;
12625;SDS011;6378;42.684;23.372;2023-01-19T11:28:17;17.45;;;3.70;;
12625;SDS011;6378;42.684;23.372;2023-01-19T11:31:15;37.63;;;4.88;;
12625;SDS011;6378;42.684;23.372;2023-01-19T11:33:56;20.92;;;3.65;;
12625;SDS011;6378;42.684;23.372;2023-01-19T11:38:56;14.48;;;3.38;;
12625;SDS011;6378;42.684;23.372;2023-01-19T11:41:30;15.25;;;3.67;;
12625;SDS011;6378;42.684;23.372;2023-01-19T11:44:08;14.32;;;3.85;;
12625;SDS011;6378;42.684;23.372;2023-01-19T11:46:40;14.88;;;3.92;;
12625;SDS011;6378;42.684;23.372;2023-01-19T11:52:08;10.25;;;3.30;;
12625;SDS011;6378;42.684;23.372;2023-01-19T11:54:51;10.85;;;3.80;;
12625;SDS011;6378;42.684;23.372;2023-01-19T11:57:24;11.75;;;3.30;;
12625;SDS011;6378;42.684;23.372;2023-01-19T11:59:50;15.43;;;3.75;;
12625;SDS011;6378;42.684;23.372;2023-01-19T12:02:22;11.10;;;3.28;;
12625;SDS011;6378;42.684;23.372;2023-01-19T12:04:51;12.45;;;3.67;;
12625;SDS011;6378;42.684;23.372;2023-01-19T12:07:25;12.52;;;2.85;;
12625;SDS011;6378;42.684;23.372;2023-01-19T12:10:11;18.77;;;3.60;;
12625;SDS011;6378;42.684;23.372;2023-01-19T12:12:40;11.45;;;3.30;;
12625;SDS011;6378;42.684;23.372;2023-01-19T12:17:53;10.60;;;3.33;;
12625;SDS011;6378;42.684;23.372;2023-01-19T12:28:47;15.20;;;3.22;;
12625;SDS011;6378;42.684;23.372;2023-01-19T12:31:15;13.70;;;2.70;;
12625;SDS011;6378;42.684;23.372;2023-01-19T12:33:42;11.75;;;3.05;;
12625;SDS011;6378;42.684;23.372;2023-01-19T12:36:09;10.68;;;2.97;;
12625;SDS011;6378;42.684;23.372;2023-01-19T12:38:39;9.43;;;3.08;;
12625;SDS011;6378;42.684;23.372;2023-01-19T12:41:21;9.65;;;3.40;;
12625;SDS011;6378;42.684;23.372;2023-01-19T12:43:47;10.25;;;3.13;;
12625;SDS011;6378;42.684;23.372;2023-01-19T12:46:35;9.07;;;2.65;;
12625;SDS011;6378;42.684;23.372;2023-01-19T12:49:04;8.93;;;2.70;;
12625;SDS011;6378;42.684;23.372;2023-01-19T12:51:33;12.48;;;3.10;;
12625;SDS011;6378;42.684;23.372;2023-01-19T12:53:59;7.40;;;2.58;;
12625;SDS011;6378;42.684;23.372;2023-01-19T12:56:29;9.45;;;3.05;;
12625;SDS011;6378;42.684;23.372;2023-01-19T12:58:57;8.50;;;3.15;;
12625;SDS011;6378;42.684;23.372;2023-01-19T13:01:23;7.18;;;2.80;;
12625;SDS011;6378;42.684;23.372;2023-01-19T13:04:10;12.40;;;2.88;;
12625;SDS011;6378;42.684;23.372;2023-01-19T13:09:33;6.68;;;2.45;;
12625;SDS011;6378;42.684;23.372;2023-01-19T13:14:38;13.77;;;3.10;;
12625;SDS011;6378;42.684;23.372;2023-01-19T13:17:14;7.68;;;2.40;;
12625;SDS011;6378;42.684;23.372;2023-01-19T13:19:47;8.50;;;2.33;;
12625;SDS011;6378;42.684;23.372;2023-01-19T13:25:23;5.38;;;2.15;;
12625;SDS011;6378;42.684;23.372;2023-01-19T13:27:52;6.85;;;2.30;;
12625;SDS011;6378;42.684;23.372;2023-01-19T13:30:18;9.00;;;3.00;;
12625;SDS011;6378;42.684;23.372;2023-01-19T13:32:48;9.23;;;2.90;;
12625;SDS011;6378;42.684;23.372;2023-01-19T13:35:14;8.73;;;2.25;;
12625;SDS011;6378;42.684;23.372;2023-01-19T13:37:42;12.27;;;3.45;;
12625;SDS011;6378;42.684;23.372;2023-01-19T13:40:42;6.15;;;2.63;;
12625;SDS011;6378;42.684;23.372;2023-01-19T13:43:03;6.70;;;2.58;;
12625;SDS011;6378;42.684;23.372;2023-01-19T13:45:38;9.07;;;2.67;;
12625;SDS011;6378;42.684;23.372;2023-01-19T13:48:06;8.95;;;2.67;;
12625;SDS011;6378;42.684;23.372;2023-01-19T13:50:36;7.55;;;2.30;;
12625;SDS011;6378;42.684;23.372;2023-01-19T13:53:17;7.03;;;2.50;;
12625;SDS011;6378;42.684;23.372;2023-01-19T13:55:44;9.70;;;3.20;;
12625;SDS011;6378;42.684;23.372;2023-01-19T13:58:21;9.60;;;2.70;;
12625;SDS011;6378;42.684;23.372;2023-01-19T14:00:48;7.32;;;2.70;;
12625;SDS011;6378;42.684;23.372;2023-01-19T14:05:39;5.90;;;2.40;;
12625;SDS011;6378;42.684;23.372;2023-01-19T14:10:33;6.32;;;2.53;;
12625;SDS011;6378;42.684;23.372;2023-01-19T14:13:00;6.63;;;2.47;;
12625;SDS011;6378;42.684;23.372;2023-01-19T14:15:36;11.40;;;2.75;;
12625;SDS011;6378;42.684;23.372;2023-01-19T14:29:28;4.63;;;2.25;;
12625;SDS011;6378;42.684;23.372;2023-01-19T14:36:54;7.70;;;3.13;;
12625;SDS011;6378;42.684;23.372;2023-01-19T14:39:21;4.57;;;2.28;;
12625;SDS011;6378;42.684;23.372;2023-01-19T14:41:49;6.43;;;2.53;;
12625;SDS011;6378;42.684;23.372;2023-01-19T14:47:02;5.60;;;2.22;;
12625;SDS011;6378;42.684;23.372;2023-01-19T14:51:57;8.50;;;2.72;;
12625;SDS011;6378;42.684;23.372;2023-01-19T14:54:29;8.50;;;2.40;;
12625;SDS011;6378;42.684;23.372;2023-01-19T14:57:04;9.45;;;3.00;;
12625;SDS011;6378;42.684;23.372;2023-01-19T14:59:30;7.07;;;2.97;;
12625;SDS011;6378;42.684;23.372;2023-01-19T15:01:56;17.95;;;5.68;;
12625;SDS011;6378;42.684;23.372;2023-01-19T15:04:23;13.32;;;2.88;;
12625;SDS011;6378;42.684;23.372;2023-01-19T15:06:50;6.85;;;3.08;;
12625;SDS011;6378;42.684;23.372;2023-01-19T15:09:15;7.15;;;2.78;;
12625;SDS011;6378;42.684;23.372;2023-01-19T15:11:41;10.48;;;3.05;;
12625;SDS011;6378;42.684;23.372;2023-01-19T15:14:10;6.70;;;2.60;;
12625;SDS011;6378;42.684;23.372;2023-01-19T15:16:38;14.77;;;3.22;;
12625;SDS011;6378;42.684;23.372;2023-01-19T15:19:04;8.93;;;2.83;;
12625;SDS011;6378;42.684;23.372;2023-01-19T15:21:29;6.57;;;2.70;;
12625;SDS011;6378;42.684;23.372;2023-01-19T15:23:55;10.55;;;3.28;;
12625;SDS011;6378;42.684;23.372;2023-01-19T15:26:23;13.10;;;3.50;;
12625;SDS011;6378;42.684;23.372;2023-01-19T15:28:50;11.02;;;2.80;;
12625;SDS011;6378;42.684;23.372;2023-01-19T15:31:22;11.15;;;2.78;;
12625;SDS011;6378;42.684;23.372;2023-01-19T15:33:49;9.02;;;2.88;;
12625;SDS011;6378;42.684;23.372;2023-01-19T15:36:16;13.52;;;5.45;;
12625;SDS011;6378;42.684;23.372;2023-01-19T15:38:43;12.18;;;4.07;;
12625;SDS011;6378;42.684;23.372;2023-01-19T15:41:22;7.93;;;4.07;;
12625;SDS011;6378;42.684;23.372;2023-01-19T15:43:50;5.75;;;3.30;;
12625;SDS011;6378;42.684;23.372;2023-01-19T15:46:20;8.00;;;3.25;;
12625;SDS011;6378;42.684;23.372;2023-01-19T15:48:47;8.70;;;3.47;;
12625;SDS011;6378;42.684;23.372;2023-01-19T15:51:14;8.27;;;3.35;;
12625;SDS011;6378;42.684;23.372;2023-01-19T15:53:41;9.15;;;3.35;;
12625;SDS011;6378;42.684;23.372;2023-01-19T15:56:20;7.70;;;3.85;;
12625;SDS011;6378;42.684;23.372;2023-01-19T15:58:48;6.65;;;3.15;;
12625;SDS011;6378;42.684;23.372;2023-01-19T16:01:16;7.80;;;2.88;;
12625;SDS011;6378;42.684;23.372;2023-01-19T16:03:46;8.82;;;3.40;;
12625;SDS011;6378;42.684;23.372;2023-01-19T16:06:12;11.70;;;3.63;;
12625;SDS011;6378;42.684;23.372;2023-01-19T16:08:40;6.15;;;2.80;;
12625;SDS011;6378;42.684;23.372;2023-01-19T16:11:07;9.65;;;2.83;;
12625;SDS011;6378;42.684;23.372;2023-01-19T16:13:34;10.40;;;3.42;;
12625;SDS011;6378;42.684;23.372;2023-01-19T16:16:03;14.18;;;3.70;;
12625;SDS011;6378;42.684;23.372;2023-01-19T16:18:32;11.27;;;3.70;;
12625;SDS011;6378;42.684;23.372;2023-01-19T16:20:59;12.88;;;5.28;;
12625;SDS011;6378;42.684;23.372;2023-01-19T16:23:25;10.07;;;4.10;;